Time;durP1;ratioP1;P1;durP2;ratioP2;P2;SDS_P1;SDS_P2;PMS_P1;PMS_P2;Temp;Humidity;BMP_temperature;BMP_pressure;BME280_temperature;BME280_humidity;BME280_pressure;Samples;Min_cycle;Max_cycle;Signal;HPM_P1;HPM_P2
2023/01/02 00:01:35;;;;;;;8.53;5.23;;;11.00;99.90;;;;;;5153625;27;20209;-73
2023/01/02 00:04:04;;;;;;;12.17;7.47;;;11.00;99.90;;;;;;5153828;27;20228;-73
2023/01/02 00:06:34;;;;;;;10.00;5.93;;;11.00;99.90;;;;;;5153656;27;20231;-73
2023/01/02 00:09:07;;;;;;;7.93;5.13;;;11.00;99.90;;;;;;5153765;27;20208;-73
2023/01/02 00:11:35;;;;;;;10.77;4.87;;;11.00;99.90;;;;;;5153743;27;20197;-72
2023/01/02 00:14:04;;;;;;;7.60;4.80;;;11.00;99.90;;;;;;5153588;27;20204;-71
2023/01/02 00:16:33;;;;;;;8.37;4.53;;;11.00;99.90;;;;;;5153398;27;20726;-73
2023/01/02 00:19:02;;;;;;;8.87;4.73;;;11.00;99.90;;;;;;5152778;27;20202;-73
2023/01/02 00:21:31;;;;;;;7.97;4.50;;;11.00;99.90;;;;;;5153468;27;20253;-72
2023/01/02 00:24:01;;;;;;;9.03;4.40;;;11.10;99.90;;;;;;5153400;27;20262;-72
2023/01/02 00:26:32;;;;;;;9.57;4.60;;;11.10;99.90;;;;;;5153298;27;20251;-73
2023/01/02 00:29:01;;;;;;;6.57;4.30;;;11.20;99.90;;;;;;5153421;27;20212;-73
2023/01/02 00:31:30;;;;;;;9.73;4.87;;;11.20;99.90;;;;;;5153181;27;20225;-72
2023/01/02 00:33:59;;;;;;;8.70;4.40;;;11.20;99.90;;;;;;5134934;27;20202;-74
2023/01/02 00:36:28;;;;;;;9.00;5.17;;;11.20;99.90;;;;;;5153427;27;20605;-73
2023/01/02 00:38:57;;;;;;;7.30;5.67;;;11.20;99.90;;;;;;5153201;27;20324;-72
2023/01/02 00:41:26;;;;;;;8.17;4.60;;;11.10;99.90;;;;;;5153209;27;20687;-73
2023/01/02 00:43:56;;;;;;;8.80;5.00;;;11.00;99.90;;;;;;5153125;27;20233;-73
2023/01/02 00:46:25;;;;;;;11.40;5.30;;;11.00;99.90;;;;;;5153206;27;20197;-72
2023/01/02 00:48:54;;;;;;;5.73;4.37;;;11.00;99.90;;;;;;5153341;27;20196;-73
2023/01/02 00:51:23;;;;;;;7.90;5.10;;;11.10;99.90;;;;;;5153135;27;20254;-73
2023/01/02 00:53:52;;;;;;;6.60;4.90;;;11.00;99.90;;;;;;5134560;27;20206;-70
2023/01/02 00:56:21;;;;;;;6.07;4.00;;;11.00;99.90;;;;;;5153134;27;20212;-73
2023/01/02 00:58:50;;;;;;;9.10;4.90;;;11.00;99.90;;;;;;5152988;27;20201;-72
2023/01/02 01:01:20;;;;;;;5.67;4.80;;;11.00;99.90;;;;;;5152925;27;20221;-72
2023/01/02 01:03:49;;;;;;;6.03;4.60;;;11.00;99.90;;;;;;5153069;27;20254;-70
2023/01/02 01:06:18;;;;;;;8.37;4.80;;;11.10;99.90;;;;;;5152911;27;20231;-72
2023/01/02 01:08:47;;;;;;;8.00;4.17;;;11.00;99.90;;;;;;5153031;27;20208;-72
2023/01/02 01:11:17;;;;;;;7.40;4.30;;;11.00;99.90;;;;;;5153498;27;20193;-72
2023/01/02 01:13:46;;;;;;;8.23;4.17;;;11.00;99.90;;;;;;5152833;27;20211;-69
2023/01/02 01:16:17;;;;;;;8.00;4.43;;;11.00;99.90;;;;;;5153013;27;20206;-73
2023/01/02 01:18:48;;;;;;;6.57;4.43;;;11.10;99.90;;;;;;5153049;27;20250;-73
2023/01/02 01:21:19;;;;;;;6.97;4.40;;;11.00;99.90;;;;;;5152925;27;20232;-73
2023/01/02 01:23:50;;;;;;;11.53;5.00;;;11.00;99.90;;;;;;5152859;27;20593;-72
2023/01/02 01:26:20;;;;;;;6.80;4.43;;;11.00;99.90;;;;;;5152536;27;20255;-73
2023/01/02 01:28:51;;;;;;;6.83;4.60;;;11.00;99.90;;;;;;5152967;27;20225;-70
2023/01/02 01:31:20;;;;;;;10.57;4.60;;;11.00;99.90;;;;;;5152721;27;20277;-71
2023/01/02 01:33:51;;;;;;;8.53;4.70;;;10.90;99.90;;;;;;5134277;27;20206;-73
2023/01/02 01:36:23;;;;;;;9.27;4.13;;;10.90;99.90;;;;;;5152772;27;20251;-72
2023/01/02 01:38:52;;;;;;;7.47;4.13;;;11.00;99.90;;;;;;5152669;27;20693;-71
2023/01/02 01:41:24;;;;;;;6.13;4.30;;;11.10;99.90;;;;;;5152605;27;20201;-72
2023/01/02 01:43:55;;;;;;;9.33;4.70;;;11.00;99.90;;;;;;5152718;27;20633;-73
2023/01/02 01:46:29;;;;;;;8.80;5.47;;;11.10;99.90;;;;;;5152522;27;20241;-72
2023/01/02 01:49:10;;;;;;;20.43;7.07;;;11.00;99.90;;;;;;5152639;27;20204;-72
2023/01/02 01:51:44;;;;;;;10.13;5.10;;;11.00;99.90;;;;;;5156058;27;20198;-73
2023/01/02 01:54:15;;;;;;;8.40;4.80;;;11.00;99.90;;;;;;5156339;27;20195;-72
2023/01/02 01:56:49;;;;;;;10.10;4.37;;;11.10;99.90;;;;;;5156404;27;20186;-71
2023/01/02 01:59:19;;;;;;;7.97;4.53;;;10.90;99.90;;;;;;5156226;27;20191;-72
2023/01/02 02:01:50;;;;;;;8.47;4.40;;;11.00;99.90;;;;;;5155891;27;20223;-72
2023/01/02 02:04:25;;;;;;;9.07;5.03;;;11.00;99.90;;;;;;5156049;27;20225;-73
2023/01/02 02:06:54;;;;;;;7.03;4.57;;;10.90;99.90;;;;;;5156035;27;20214;-73
2023/01/02 02:09:30;;;;;;;8.53;4.73;;;10.90;99.90;;;;;;5155940;27;20261;-73
2023/01/02 02:11:59;;;;;;;6.67;4.13;;;10.90;99.90;;;;;;5156157;27;20182;-73
2023/01/02 02:14:28;;;;;;;7.23;4.23;;;10.90;99.90;;;;;;5156047;27;20669;-73
2023/01/02 02:17:03;;;;;;;6.43;4.03;;;10.80;99.90;;;;;;5155735;27;20546;-73
2023/01/02 02:20:03;;;;;;;7.60;3.93;;;10.90;99.90;;;;;;5155880;27;20194;-70
2023/01/02 02:23:17;;;;;;;6.60;4.13;;;10.90;99.90;;;;;;5129815;27;20231;-73
2023/01/02 02:26:28;;;;;;;8.07;4.30;;;10.90;99.90;;;;;;5155474;27;20229;-72
2023/01/02 02:29:25;;;;;;;11.70;4.57;;;10.80;99.90;;;;;;5155683;27;20205;-73
2023/01/02 02:32:02;;;;;;;7.30;4.43;;;10.80;99.90;;;;;;5155699;27;20643;-72
2023/01/02 02:34:36;;;;;;;6.97;4.10;;;10.80;99.90;;;;;;5155756;27;20200;-73
2023/01/02 02:37:12;;;;;;;8.80;4.67;;;10.70;99.90;;;;;;5155564;27;20194;-73
2023/01/02 02:39:54;;;;;;;6.60;4.17;;;10.80;99.90;;;;;;5155452;27;20201;-70
2023/01/02 02:42:31;;;;;;;7.43;5.30;;;10.70;99.90;;;;;;5155430;27;20209;-72
2023/01/02 02:45:09;;;;;;;8.17;4.47;;;10.60;99.90;;;;;;5155470;27;20702;-71
2023/01/02 02:47:47;;;;;;;7.73;4.70;;;10.60;99.90;;;;;;5155042;27;20209;-71
2023/01/02 02:50:25;;;;;;;4.90;4.20;;;10.70;99.90;;;;;;5155341;27;20204;-72
2023/01/02 02:53:01;;;;;;;6.60;4.60;;;10.70;99.90;;;;;;5136609;27;20204;-71
2023/01/02 02:55:33;;;;;;;7.50;4.60;;;10.70;99.90;;;;;;5155450;27;20561;-71
2023/01/02 02:58:02;;;;;;;6.30;4.60;;;10.70;99.90;;;;;;5155233;27;20194;-71
2023/01/02 03:00:31;;;;;;;6.50;4.53;;;10.60;99.90;;;;;;5154956;27;20200;-71
2023/01/02 03:03:01;;;;;;;6.27;4.33;;;10.70;99.90;;;;;;5136395;27;20631;-72
2023/01/02 03:05:35;;;;;;;8.30;4.80;;;10.70;99.90;;;;;;5155179;27;20217;-72
2023/01/02 03:08:11;;;;;;;7.93;4.07;;;10.80;99.90;;;;;;5154967;27;20677;-72
2023/01/02 03:10:46;;;;;;;4.40;3.83;;;10.70;99.90;;;;;;5154807;27;20212;-71
2023/01/02 03:13:23;;;;;;;5.37;3.73;;;10.70;99.90;;;;;;5154659;27;20216;-72
2023/01/02 03:16:03;;;;;;;8.77;4.17;;;10.70;99.90;;;;;;5154799;27;20201;-71
2023/01/02 03:18:40;;;;;;;9.47;5.07;;;10.70;99.90;;;;;;5154829;27;20195;-73
2023/01/02 03:21:13;;;;;;;7.93;4.20;;;10.70;99.90;;;;;;5154682;27;20197;-73
2023/01/02 03:23:45;;;;;;;8.37;4.43;;;10.70;99.90;;;;;;5154589;27;20245;-72
2023/01/02 03:26:18;;;;;;;4.53;4.03;;;10.60;99.90;;;;;;5154177;27;20225;-72
2023/01/02 03:28:50;;;;;;;6.07;4.27;;;10.70;99.90;;;;;;5154648;27;20197;-71
2023/01/02 03:31:21;;;;;;;7.77;4.80;;;10.70;99.90;;;;;;5154318;27;20673;-71
2023/01/02 03:33:59;;;;;;;7.23;4.47;;;10.80;99.90;;;;;;5154577;27;20196;-73
2023/01/02 03:36:32;;;;;;;7.43;4.53;;;10.80;99.90;;;;;;5154421;27;20254;-71
2023/01/02 03:39:08;;;;;;;7.17;4.30;;;10.60;99.90;;;;;;5154498;27;20196;-71
2023/01/02 03:41:41;;;;;;;7.70;3.80;;;10.70;99.90;;;;;;5154270;27;20204;-71
2023/01/02 03:44:12;;;;;;;7.47;4.60;;;10.80;99.90;;;;;;5154069;27;20577;-71
2023/01/02 03:46:47;;;;;;;9.17;4.37;;;10.60;99.90;;;;;;5153965;27;20205;-71
2023/01/02 03:49:23;;;;;;;8.60;4.40;;;10.60;99.90;;;;;;5154317;27;20291;-71
2023/01/02 03:51:51;;;;;;;8.53;4.20;;;10.60;99.90;;;;;;5154080;27;20196;-71
2023/01/02 03:54:21;;;;;;;9.27;4.83;;;10.60;99.90;;;;;;5154017;27;20617;-72
2023/01/02 03:56:57;;;;;;;7.00;4.37;;;10.70;99.90;;;;;;5153954;27;20216;-73
2023/01/02 03:59:34;;;;;;;5.67;4.40;;;10.70;99.90;;;;;;5153951;27;20197;-71
2023/01/02 04:02:10;;;;;;;6.70;4.57;;;10.60;99.90;;;;;;5153694;27;20248;-72
2023/01/02 04:04:46;;;;;;;8.30;4.33;;;10.60;99.90;;;;;;5153878;27;20259;-73
2023/01/02 04:07:24;;;;;;;7.97;5.00;;;10.60;99.90;;;;;;5153684;27;20201;-72
2023/01/02 04:09:54;;;;;;;8.27;4.77;;;10.60;99.90;;;;;;5153796;27;20239;-72
2023/01/02 04:12:26;;;;;;;4.93;4.07;;;10.70;99.90;;;;;;5153280;27;20192;-72
2023/01/02 04:14:59;;;;;;;9.27;3.90;;;10.70;99.90;;;;;;5153554;27;20739;-72
2023/01/02 04:17:35;;;;;;;5.97;4.87;;;10.60;99.90;;;;;;5153528;27;20708;-70
2023/01/02 04:20:08;;;;;;;5.73;4.00;;;10.60;99.90;;;;;;5153649;27;20288;-71
2023/01/02 04:22:42;;;;;;;6.60;4.23;;;10.60;99.90;;;;;;5153497;27;20211;-73
2023/01/02 04:25:13;;;;;;;6.80;4.40;;;10.60;99.90;;;;;;5153171;27;20233;-71
2023/01/02 04:27:48;;;;;;;6.50;4.13;;;10.70;99.90;;;;;;5153588;27;20675;-70
2023/01/02 04:30:18;;;;;;;6.93;4.43;;;10.70;99.90;;;;;;5153473;27;20206;-71
2023/01/02 04:32:48;;;;;;;7.60;4.33;;;10.70;99.90;;;;;;5153396;27;20215;-72
2023/01/02 04:35:21;;;;;;;9.03;5.60;;;10.80;99.90;;;;;;5153462;27;20201;-72
2023/01/02 04:37:50;;;;;;;11.00;4.77;;;10.70;99.90;;;;;;5153440;27;20250;-73
2023/01/02 04:40:23;;;;;;;9.57;4.70;;;10.70;99.90;;;;;;5134777;27;20722;-71
2023/01/02 04:42:52;;;;;;;8.87;4.60;;;10.80;99.90;;;;;;5153758;27;20213;-71
2023/01/02 04:45:22;;;;;;;9.17;4.30;;;10.70;99.90;;;;;;5153096;27;20224;-71
2023/01/02 04:47:51;;;;;;;5.57;4.77;;;10.80;99.90;;;;;;5153224;27;20288;-72
2023/01/02 04:50:21;;;;;;;13.57;5.03;;;10.90;99.90;;;;;;5153382;27;20198;-72
2023/01/02 04:52:50;;;;;;;10.37;4.10;;;10.90;99.90;;;;;;5153215;27;20235;-72
2023/01/02 04:55:19;;;;;;;9.73;4.83;;;11.00;99.90;;;;;;5153265;27;20719;-71
2023/01/02 04:57:48;;;;;;;6.37;4.47;;;10.90;99.90;;;;;;5153188;27;20206;-71
2023/01/02 05:00:17;;;;;;;8.23;4.97;;;10.90;99.90;;;;;;5153191;27;20186;-71
2023/01/02 05:02:46;;;;;;;8.13;4.50;;;10.80;99.90;;;;;;5152983;27;20645;-72
2023/01/02 05:05:15;;;;;;;6.27;4.70;;;10.80;99.90;;;;;;5153227;27;20279;-73
2023/01/02 05:07:45;;;;;;;8.03;4.30;;;10.80;99.90;;;;;;5153011;27;20606;-72
2023/01/02 05:10:14;;;;;;;8.20;4.87;;;10.90;99.90;;;;;;5152984;27;20197;-72
2023/01/02 05:12:43;;;;;;;7.20;4.23;;;11.00;99.90;;;;;;5153007;27;20588;-71
2023/01/02 05:15:12;;;;;;;9.40;4.50;;;10.90;99.90;;;;;;5152770;27;20205;-73
2023/01/02 05:17:42;;;;;;;6.07;5.10;;;10.90;99.90;;;;;;5152965;27;20198;-72
2023/01/02 05:20:13;;;;;;;8.80;4.57;;;10.90;99.90;;;;;;5152801;27;20210;-73
2023/01/02 05:25:33;;;;;;;6.63;4.70;;;11.00;99.90;;;;;;5154551;27;20282;-71
2023/01/02 05:28:03;;;;;;;8.57;4.80;;;10.80;99.90;;;;;;5157003;27;20196;-71
2023/01/02 05:30:31;;;;;;;8.67;5.50;;;10.80;99.90;;;;;;5156867;27;20651;-72
2023/01/02 05:33:00;;;;;;;9.37;5.80;;;10.90;99.90;;;;;;5156769;27;20197;-70
2023/01/02 05:35:29;;;;;;;7.70;6.53;;;10.90;99.90;;;;;;5156825;27;20682;-70
2023/01/02 05:38:02;;;;;;;8.37;5.23;;;10.80;99.90;;;;;;5156857;27;20198;-71
2023/01/02 05:40:31;;;;;;;6.07;5.10;;;10.80;99.90;;;;;;5156574;27;20581;-72
2023/01/02 05:43:01;;;;;;;8.30;5.30;;;10.70;99.90;;;;;;5156610;27;20198;-69
2023/01/02 05:45:30;;;;;;;9.60;6.13;;;10.70;99.90;;;;;;5156572;27;20225;-72
2023/01/02 05:47:59;;;;;;;6.00;4.77;;;10.70;99.90;;;;;;5156380;27;20216;-73
2023/01/02 05:50:28;;;;;;;7.43;4.67;;;10.80;99.90;;;;;;5156330;27;20194;-69
2023/01/02 05:52:57;;;;;;;8.97;5.10;;;10.70;99.90;;;;;;5156276;27;20674;-71
2023/01/02 05:55:27;;;;;;;10.50;5.63;;;10.80;99.90;;;;;;5156418;27;20201;-72
2023/01/02 05:57:58;;;;;;;11.10;5.07;;;10.90;99.90;;;;;;5156409;27;20297;-70
2023/01/02 06:00:27;;;;;;;9.37;5.67;;;10.90;99.90;;;;;;5156273;27;20197;-74
2023/01/02 06:02:55;;;;;;;8.23;5.20;;;10.80;99.90;;;;;;5156086;27;20574;-70
2023/01/02 06:05:24;;;;;;;6.70;4.77;;;10.80;99.90;;;;;;5156135;27;20709;-71
2023/01/02 06:07:53;;;;;;;10.37;5.47;;;10.80;99.90;;;;;;5156075;27;20206;-73
2023/01/02 06:10:22;;;;;;;8.13;5.60;;;10.90;99.90;;;;;;5156200;27;20546;-72
2023/01/02 06:12:53;;;;;;;8.57;5.73;;;11.00;99.90;;;;;;5155979;27;20205;-70
2023/01/02 06:15:21;;;;;;;10.13;6.27;;;11.00;99.90;;;;;;5156046;27;20201;-71
2023/01/02 06:17:50;;;;;;;12.23;6.60;;;11.10;99.90;;;;;;5155827;27;20542;-72
2023/01/02 06:20:19;;;;;;;9.07;5.40;;;11.10;99.90;;;;;;5155798;27;20893;-70
2023/01/02 06:22:48;;;;;;;10.00;5.20;;;11.20;99.90;;;;;;5155831;27;20228;-70
2023/01/02 06:25:17;;;;;;;9.27;5.30;;;11.20;99.90;;;;;;5155674;27;20575;-72
2023/01/02 06:27:46;;;;;;;9.60;5.13;;;11.20;99.90;;;;;;5155755;27;20648;-72
2023/01/02 06:30:16;;;;;;;10.20;5.57;;;11.30;99.90;;;;;;5155542;27;20206;-71
2023/01/02 06:32:45;;;;;;;69.47;42.07;;;11.40;99.90;;;;;;5155369;27;20202;-71
2023/01/02 06:35:14;;;;;;;41.57;23.00;;;11.40;99.90;;;;;;5155246;27;20198;-72
2023/01/02 06:37:44;;;;;;;65.43;40.60;;;11.40;99.90;;;;;;5155278;27;20234;-73
2023/01/02 06:40:13;;;;;;;74.97;42.13;;;11.50;99.90;;;;;;5155481;27;20242;-71
2023/01/02 06:42:44;;;;;;;52.80;33.23;;;11.60;99.90;;;;;;5136732;27;20193;-70
2023/01/02 06:45:13;;;;;;;41.70;24.40;;;11.60;99.90;;;;;;5155448;27;20206;-74
2023/01/02 06:47:43;;;;;;;22.47;14.43;;;11.60;99.90;;;;;;5155077;27;20190;-71
2023/01/02 06:50:12;;;;;;;30.63;17.03;;;11.50;99.90;;;;;;5155185;27;20683;-74
2023/01/02 06:52:41;;;;;;;30.20;16.60;;;11.60;99.90;;;;;;5155079;27;20721;-73
2023/01/02 06:55:10;;;;;;;43.23;26.87;;;11.60;99.90;;;;;;5155164;27;20199;-71
2023/01/02 06:57:39;;;;;;;35.90;21.10;;;11.60;99.90;;;;;;5154963;27;20265;-74
2023/01/02 07:00:09;;;;;;;38.40;23.43;;;11.50;99.90;;;;;;5154255;27;20235;-73
2023/01/02 07:02:39;;;;;;;43.37;27.47;;;11.60;99.90;;;;;;5136395;27;20194;-73
2023/01/02 07:05:10;;;;;;;48.97;29.70;;;11.60;99.90;;;;;;5154848;27;20221;-73
2023/01/02 07:07:39;;;;;;;33.23;20.03;;;11.60;99.90;;;;;;5154885;27;20208;-71
2023/01/02 07:10:08;;;;;;;23.53;17.60;;;11.60;99.90;;;;;;5154821;27;20270;-70
2023/01/02 07:12:38;;;;;;;29.33;16.77;;;11.60;99.90;;;;;;5154592;27;20266;-72
2023/01/02 07:15:08;;;;;;;11.53;8.07;;;11.50;99.90;;;;;;5154763;27;20606;-71
2023/01/02 07:17:36;;;;;;;22.87;11.83;;;11.40;99.90;;;;;;5154394;27;20666;-74
2023/01/02 07:20:06;;;;;;;17.63;9.87;;;11.40;99.90;;;;;;5154591;27;20209;-73
2023/01/02 07:22:37;;;;;;;28.30;14.87;;;11.40;99.90;;;;;;5154458;27;20204;-74
2023/01/02 07:25:06;;;;;;;22.80;11.07;;;11.40;99.90;;;;;;5147919;27;20213;-72
2023/01/02 07:27:35;;;;;;;12.77;7.53;;;11.60;99.90;;;;;;5152542;27;20634;-74
2023/01/02 07:30:05;;;;;;;15.03;10.70;;;11.40;99.90;;;;;;5154192;27;20197;-71
2023/01/02 07:32:34;;;;;;;15.03;8.53;;;11.40;99.90;;;;;;5154352;27;20206;-70
2023/01/02 07:35:03;;;;;;;14.07;7.50;;;11.40;99.90;;;;;;5154389;27;20197;-72
2023/01/02 07:37:32;;;;;;;14.20;7.60;;;11.30;99.90;;;;;;5154361;27;20200;-74
2023/01/02 07:40:02;;;;;;;14.70;7.30;;;11.10;99.90;;;;;;5154197;27;20202;-71
2023/01/02 07:42:31;;;;;;;19.10;10.03;;;11.00;99.90;;;;;;5154339;27;20205;-73
2023/01/02 07:44:59;;;;;;;14.90;8.47;;;11.10;99.90;;;;;;5154249;27;20253;-72
2023/01/02 07:47:28;;;;;;;18.77;10.43;;;11.10;99.90;;;;;;5153086;27;20246;-73
2023/01/02 07:49:57;;;;;;;14.63;9.07;;;11.10;99.90;;;;;;5154052;27;20189;-73
2023/01/02 07:52:26;;;;;;;16.90;9.07;;;11.20;99.90;;;;;;5153984;27;20246;-71
2023/01/02 07:54:55;;;;;;;13.53;9.13;;;11.20;99.90;;;;;;5149510;27;20202;-73
2023/01/02 07:57:25;;;;;;;14.47;8.30;;;11.30;99.90;;;;;;5150565;27;20185;-73
2023/01/02 07:59:54;;;;;;;15.37;9.23;;;11.10;99.90;;;;;;5153862;27;20197;-70
2023/01/02 08:02:23;;;;;;;17.50;8.37;;;11.20;99.90;;;;;;5153843;27;20191;-71
2023/01/02 08:04:52;;;;;;;16.37;11.60;;;11.30;99.90;;;;;;5153671;27;20197;-70
2023/01/02 08:07:21;;;;;;;14.97;9.83;;;11.50;99.90;;;;;;5153520;27;20226;-72
2023/01/02 08:09:50;;;;;;;14.13;9.80;;;11.50;99.90;;;;;;5135164;27;20225;-71
2023/01/02 08:12:19;;;;;;;16.87;11.07;;;11.50;99.90;;;;;;5153656;27;20658;-73
2023/01/02 08:14:51;;;;;;;24.63;15.17;;;11.60;99.90;;;;;;5153914;27;20592;-73
2023/01/02 08:17:20;;;;;;;15.87;9.70;;;11.70;99.90;;;;;;5153651;27;20205;-73
2023/01/02 08:19:49;;;;;;;14.53;10.00;;;11.60;99.90;;;;;;5153282;27;20196;-74
2023/01/02 08:22:18;;;;;;;21.40;12.73;;;11.60;99.90;;;;;;5153395;27;20732;-73
2023/01/02 08:24:46;;;;;;;15.10;10.20;;;11.60;99.90;;;;;;5149830;27;20203;-73
2023/01/02 08:27:15;;;;;;;15.93;11.63;;;11.70;99.90;;;;;;5148675;27;20218;-73
2023/01/02 08:29:44;;;;;;;22.10;10.30;;;11.80;99.90;;;;;;5153310;27;20187;-70
2023/01/02 08:32:14;;;;;;;17.00;12.67;;;11.60;99.90;;;;;;5153302;27;20355;-71
2023/01/02 08:34:45;;;;;;;14.83;9.77;;;11.60;99.90;;;;;;5153239;27;20205;-69
2023/01/02 08:37:16;;;;;;;15.70;9.60;;;11.60;99.90;;;;;;5153325;27;20197;-73
2023/01/02 08:39:45;;;;;;;15.60;10.17;;;11.60;99.90;;;;;;5153273;27;20281;-74
2023/01/02 08:42:14;;;;;;;20.77;11.67;;;11.60;99.90;;;;;;5153086;27;20197;-72
2023/01/02 08:44:42;;;;;;;19.20;10.67;;;11.60;99.90;;;;;;5152978;27;20209;-69
2023/01/02 08:47:11;;;;;;;19.03;11.90;;;11.60;99.90;;;;;;5134611;27;20646;-73
2023/01/02 08:49:41;;;;;;;19.40;11.90;;;11.70;99.90;;;;;;5152832;27;20707;-73
2023/01/02 08:52:10;;;;;;;18.60;10.83;;;11.80;99.90;;;;;;5153189;27;20690;-74
2023/01/02 08:54:39;;;;;;;19.07;12.27;;;11.70;99.90;;;;;;5150597;27;20194;-71
2023/01/02 08:57:08;;;;;;;15.47;12.63;;;11.60;99.90;;;;;;5147452;27;20204;-72
2023/01/02 08:59:37;;;;;;;18.47;11.73;;;11.70;99.90;;;;;;5155201;27;20205;-73
2023/01/02 09:02:06;;;;;;;18.60;13.17;;;11.60;99.90;;;;;;5157163;27;20258;-69
2023/01/02 09:04:35;;;;;;;22.23;13.67;;;11.60;99.90;;;;;;5157233;27;20186;-71
2023/01/02 09:07:05;;;;;;;26.80;14.63;;;11.70;99.90;;;;;;5157197;27;20626;-73
2023/01/02 09:09:34;;;;;;;20.93;13.93;;;11.70;99.90;;;;;;5148963;27;20198;-69
2023/01/02 09:12:03;;;;;;;17.20;13.57;;;11.70;99.90;;;;;;5139998;27;20290;-72
2023/01/02 09:14:32;;;;;;;22.37;13.70;;;11.70;99.90;;;;;;5156968;27;20659;-71
2023/01/02 09:17:01;;;;;;;22.10;14.37;;;11.80;99.90;;;;;;5128733;27;20230;-70
2023/01/02 09:19:30;;;;;;;23.27;15.70;;;11.80;99.90;;;;;;5136230;27;20192;-71
2023/01/02 09:22:00;;;;;;;23.63;14.47;;;11.90;99.90;;;;;;5117837;27;20237;-73
2023/01/02 09:24:30;;;;;;;19.77;13.27;;;12.00;99.90;;;;;;5134149;27;20691;-70
2023/01/02 09:26:59;;;;;;;26.20;14.73;;;12.00;99.90;;;;;;5115397;27;20235;-73
2023/01/02 09:29:28;;;;;;;24.93;15.70;;;12.00;99.90;;;;;;5115430;28;20249;-72
2023/01/02 09:31:57;;;;;;;27.43;14.67;;;12.00;99.90;;;;;;5115629;28;20198;-73
2023/01/02 09:34:26;;;;;;;20.60;13.70;;;11.90;99.90;;;;;;5125630;27;20260;-72
2023/01/02 09:36:54;;;;;;;19.20;14.30;;;12.00;99.90;;;;;;5115856;28;20199;-74
2023/01/02 09:39:23;;;;;;;23.93;15.43;;;11.90;99.90;;;;;;5097603;28;20726;-72
2023/01/02 09:42:03;;;;;;;24.20;14.27;;;12.00;99.90;;;;;;5115801;28;20198;-70
2023/01/02 09:44:36;;;;;;;21.37;15.20;;;12.10;99.90;;;;;;5115719;28;20210;-74
2023/01/02 09:47:11;;;;;;;21.17;13.37;;;12.30;99.90;;;;;;5115583;28;20230;-73
2023/01/02 09:49:46;;;;;;;22.80;15.03;;;12.40;99.90;;;;;;5114940;28;20196;-72
2023/01/02 09:52:19;;;;;;;24.77;15.60;;;12.30;99.90;;;;;;5123937;27;20205;-70
2023/01/02 09:54:48;;;;;;;25.30;14.77;;;12.30;99.90;;;;;;5139970;27;20212;-72
2023/01/02 09:57:31;;;;;;;24.13;14.80;;;12.30;99.90;;;;;;5131765;27;20199;-71
2023/01/02 10:00:05;;;;;;;20.90;14.93;;;12.30;99.90;;;;;;5135971;27;20210;-72
2023/01/02 10:02:47;;;;;;;21.67;13.83;;;12.30;99.90;;;;;;5135352;27;20241;-72
2023/01/02 10:05:37;;;;;;;19.53;13.67;;;12.30;99.90;;;;;;5135120;27;20268;-72
2023/01/02 10:08:12;;;;;;;25.23;14.57;;;12.30;99.90;;;;;;5135693;27;20317;-71
2023/01/02 10:10:44;;;;;;;22.77;14.13;;;12.30;99.90;;;;;;5135004;27;20582;-71
2023/01/02 10:13:21;;;;;;;17.23;12.20;;;12.30;99.90;;;;;;5116557;27;20202;-70
2023/01/02 10:16:04;;;;;;;32.27;19.67;;;12.30;99.90;;;;;;5135763;27;20195;-70
2023/01/02 10:18:39;;;;;;;21.23;13.97;;;12.30;99.90;;;;;;5134966;27;20203;-71
2023/01/02 10:21:17;;;;;;;29.97;18.40;;;12.40;99.90;;;;;;5135735;27;20674;-71
2023/01/02 10:23:49;;;;;;;24.07;15.67;;;12.40;99.90;;;;;;5135216;27;20255;-71
2023/01/02 10:26:20;;;;;;;28.50;20.47;;;12.30;99.90;;;;;;5133243;27;20229;-70
2023/01/02 10:28:56;;;;;;;27.87;19.87;;;12.40;99.90;;;;;;5125167;27;20249;-71
2023/01/02 10:31:28;;;;;;;28.23;18.27;;;12.50;99.90;;;;;;5122429;27;20194;-72
2023/01/02 10:33:59;;;;;;;30.37;18.30;;;12.50;99.90;;;;;;5134643;27;20241;-71
2023/01/02 10:36:30;;;;;;;28.13;17.87;;;12.40;99.90;;;;;;5135746;27;20307;-70
2023/01/02 10:39:02;;;;;;;23.97;14.53;;;12.60;99.90;;;;;;5135154;27;20634;-71
2023/01/02 10:41:33;;;;;;;23.93;14.83;;;12.60;99.90;;;;;;5135259;27;20550;-71
2023/01/02 10:44:08;;;;;;;21.80;13.73;;;12.60;99.90;;;;;;5138146;27;20206;-71
2023/01/02 10:46:40;;;;;;;23.23;15.57;;;12.70;99.90;;;;;;5155401;27;20562;-71
2023/01/02 10:49:10;;;;;;;22.83;13.90;;;12.90;99.90;;;;;;5154919;27;20287;-72
2023/01/02 10:51:44;;;;;;;21.13;13.07;;;12.90;99.90;;;;;;5155178;27;20203;-71
2023/01/02 10:54:13;;;;;;;20.17;12.10;;;12.80;99.90;;;;;;5139937;27;20299;-72
2023/01/02 10:56:48;;;;;;;29.60;13.63;;;12.80;99.90;;;;;;5113579;28;20210;-71
2023/01/02 10:59:22;;;;;;;17.37;11.40;;;13.00;99.90;;;;;;5113798;28;20195;-74
2023/01/02 11:01:53;;;;;;;18.83;11.50;;;13.00;99.90;;;;;;5124874;27;20676;-72
2023/01/02 11:04:25;;;;;;;19.50;12.10;;;13.10;99.90;;;;;;5133944;27;20195;-72
2023/01/02 11:06:57;;;;;;;18.83;12.17;;;13.10;99.90;;;;;;5134156;27;20568;-71
2023/01/02 11:09:28;;;;;;;19.57;11.97;;;13.20;99.90;;;;;;5134147;27;20219;-71
2023/01/02 11:12:00;;;;;;;38.87;23.83;;;13.10;99.90;;;;;;5133928;27;20198;-71
2023/01/02 11:14:33;;;;;;;18.63;11.57;;;13.10;99.90;;;;;;5134148;27;20208;-70
2023/01/02 11:17:08;;;;;;;17.50;12.67;;;13.20;99.90;;;;;;5133909;27;20205;-71
2023/01/02 11:19:41;;;;;;;15.93;10.93;;;13.30;99.90;;;;;;5133875;27;20194;-71
2023/01/02 11:22:12;;;;;;;18.67;11.93;;;13.30;99.90;;;;;;5134080;27;20224;-71
2023/01/02 11:24:55;;;;;;;16.97;11.37;;;13.30;99.90;;;;;;5133379;27;20223;-71
2023/01/02 11:27:31;;;;;;;19.33;12.93;;;13.30;99.90;;;;;;5150179;27;20202;-72
2023/01/02 11:30:03;;;;;;;15.73;10.37;;;13.40;99.90;;;;;;5151075;27;20182;-72
2023/01/02 11:32:38;;;;;;;19.70;11.67;;;13.40;99.90;;;;;;5149149;27;20196;-71
2023/01/02 11:35:32;;;;;;;19.03;10.73;;;13.30;99.90;;;;;;5143275;27;20208;-72
2023/01/02 11:38:02;;;;;;;14.97;9.73;;;13.30;99.90;;;;;;5154463;27;20730;-74
2023/01/02 11:40:32;;;;;;;20.93;11.50;;;13.30;99.90;;;;;;5154317;27;20200;-74
2023/01/02 11:45:55;;;;;;;16.97;11.27;;;13.50;99.90;;;;;;5154122;27;20693;-71
2023/01/02 11:48:25;;;;;;;14.03;9.37;;;13.50;99.90;;;;;;5154129;27;20217;-71
2023/01/02 11:50:55;;;;;;;19.83;10.07;;;13.50;99.90;;;;;;5153944;27;20197;-70
2023/01/02 11:53:30;;;;;;;13.93;9.77;;;13.50;99.90;;;;;;5154049;27;20678;-72
2023/01/02 11:56:06;;;;;;;14.00;9.07;;;13.50;99.90;;;;;;5145281;27;20190;-72
2023/01/02 11:58:43;;;;;;;16.87;10.37;;;13.50;99.90;;;;;;5154154;27;20252;-71
2023/01/02 12:01:21;;;;;;;14.80;9.00;;;13.60;99.90;;;;;;5153946;27;20203;-72
2023/01/02 12:03:51;;;;;;;11.93;8.67;;;13.60;99.90;;;;;;5154022;27;20200;-71
2023/01/02 12:06:22;;;;;;;15.03;8.57;;;13.60;99.90;;;;;;5153887;27;20186;-71
2023/01/02 12:09:11;;;;;;;16.27;10.50;;;13.60;99.90;;;;;;5143982;27;20218;-71
2023/01/02 12:11:57;;;;;;;15.60;10.30;;;13.60;99.90;;;;;;5112740;28;20199;-71
2023/01/02 12:14:44;;;;;;;14.77;8.67;;;13.70;99.90;;;;;;5121178;27;20656;-70
2023/01/02 12:17:26;;;;;;;14.03;9.17;;;13.60;99.90;;;;;;5132976;27;20183;-70
2023/01/02 12:20:19;;;;;;;14.07;9.43;;;13.60;99.90;;;;;;5121458;27;20250;-70
2023/01/02 12:23:20;;;;;;;11.70;8.37;;;13.70;99.90;;;;;;5112161;28;20246;-69
2023/01/02 12:26:18;;;;;;;13.80;9.20;;;13.70;99.90;;;;;;5112029;28;20243;-71
2023/01/02 12:29:06;;;;;;;15.47;9.30;;;13.80;99.90;;;;;;5049373;28;20225;-70
2023/01/02 12:31:51;;;;;;;12.73;9.43;;;13.80;99.90;;;;;;5049468;28;20233;-70
2023/01/02 12:34:34;;;;;;;16.70;8.57;;;13.70;99.90;;;;;;5061475;28;20205;-69
2023/01/02 12:37:14;;;;;;;12.93;9.37;;;13.70;99.90;;;;;;5069654;28;20355;-71
2023/01/02 12:40:04;;;;;;;10.97;8.07;;;13.70;99.90;;;;;;5069455;28;20586;-71
2023/01/02 12:42:50;;;;;;;12.57;8.03;;;13.80;99.90;;;;;;5069125;28;20206;-71
2023/01/02 12:45:30;;;;;;;17.00;9.80;;;13.70;99.90;;;;;;5069430;28;20197;-71
2023/01/02 12:48:11;;;;;;;17.43;9.57;;;13.70;99.90;;;;;;5069538;28;20223;-71
2023/01/02 12:50:57;;;;;;;19.67;10.30;;;13.80;99.90;;;;;;5069272;28;20240;-71
2023/01/02 12:53:41;;;;;;;13.00;9.47;;;13.70;99.90;;;;;;5069191;28;20209;-70
2023/01/02 12:56:17;;;;;;;21.97;10.37;;;13.70;99.90;;;;;;5068409;28;20197;-71
2023/01/02 12:59:02;;;;;;;22.13;12.07;;;13.70;99.90;;;;;;5063826;28;20215;-70
2023/01/02 13:01:36;;;;;;;13.57;8.97;;;13.80;99.90;;;;;;5079197;28;20196;-72
2023/01/02 13:04:13;;;;;;;16.47;9.63;;;13.70;99.90;;;;;;5089294;28;20234;-71
2023/01/02 13:06:50;;;;;;;14.20;8.63;;;13.70;99.90;;;;;;5126559;28;20212;-71
2023/01/02 13:09:28;;;;;;;14.20;9.07;;;13.70;99.90;;;;;;5132280;27;20221;-71
2023/01/02 13:12:04;;;;;;;14.23;9.33;;;13.70;99.90;;;;;;5132243;27;20218;-71